Terminal Aerodrome Forecast
Issued by NWS

Home | Current Version | Previous Version | Text Only | Print | Product List | Glossary On
Versions: 1 2 3 4 5 6 7 8 9 10 11 12 13 14 15 16 17 18 19 20 21 22 23
000
FTUS43 KDLH 181137
TAFHIB
TAF
KHIB 181137Z 1812/1912 00000KT P6SM SCT035 OVC100
     FM181400 11007KT 1/2SM SN OVC008
     FM182000 10007KT 1SM -SN BR OVC012
     FM182200 07008KT 3SM -SN OVC013
     FM190000 01012KT P6SM BKN045=

USA.gov is the U.S. government's official web portal to all federal, state and local government web resources and services.